Time;durP1;ratioP1;P1;durP2;ratioP2;P2;SDS_P1;SDS_P2;PMS_P1;PMS_P2;Temp;Humidity;BMP_temperature;BMP_pressure;BME280_temperature;BME280_humidity;BME280_pressure;Samples;Min_cycle;Max_cycle;Signal;HPM_P1;HPM_P2
2024/03/19 00:00:41;;;;;;;11.13;10.02;;;;;;;12.69;88.15;100319.56;10416958;28;20464;-61
2024/03/19 00:05:42;;;;;;;11.95;10.75;;;;;;;12.66;88.26;100314.50;10428452;28;20167;-61
2024/03/19 00:10:43;;;;;;;11.68;10.57;;;;;;;12.66;88.27;100308.31;10419777;28;20209;-62
2024/03/19 00:15:46;;;;;;;11.48;9.85;;;;;;;12.63;88.46;100309.41;10413786;28;20049;-62
2024/03/19 00:20:47;;;;;;;10.52;9.57;;;;;;;12.64;88.22;100311.13;10430046;28;20132;-59
2024/03/19 00:25:48;;;;;;;9.77;8.98;;;;;;;12.62;88.47;100307.72;10426433;28;20454;-60
2024/03/19 00:30:49;;;;;;;10.50;9.52;;;;;;;12.60;88.34;100304.34;10431754;28;20434;-60
2024/03/19 00:35:50;;;;;;;11.52;10.43;;;;;;;12.54;88.15;100304.91;10401303;28;20123;-61
2024/03/19 00:40:51;;;;;;;10.63;9.63;;;;;;;12.48;88.44;100300.09;10423643;28;20135;-61
2024/03/19 00:45:52;;;;;;;10.20;9.20;;;;;;;12.42;88.51;100296.13;10436046;28;20153;-60
2024/03/19 00:50:53;;;;;;;10.35;9.35;;;;;;;12.48;88.46;100311.63;10421992;28;20135;-60
2024/03/19 00:55:55;;;;;;;10.38;9.45;;;;;;;12.44;88.58;100309.34;10424714;28;20140;-61
2024/03/19 01:00:56;;;;;;;10.68;9.63;;;;;;;12.44;88.90;100309.34;10431428;28;20657;-61
2024/03/19 01:05:56;;;;;;;10.10;9.20;;;;;;;12.44;89.01;100312.03;10436734;28;20147;-60
2024/03/19 01:11:03;;;;;;;11.63;9.70;;;;;;;12.41;89.37;100306.94;10434353;28;20048;-60
2024/03/19 01:16:04;;;;;;;10.98;9.88;;;;;;;12.35;88.99;100306.50;10418320;28;20715;-61
2024/03/19 01:21:06;;;;;;;12.23;11.00;;;;;;;12.29;89.31;100300.84;10432325;28;20132;-61
2024/03/19 01:26:07;;;;;;;10.32;9.38;;;;;;;12.27;89.68;100309.00;10428714;28;20309;-61
2024/03/19 01:31:07;;;;;;;13.15;11.95;;;;;;;12.17;89.58;100297.41;10418447;28;20048;-60
2024/03/19 01:36:08;;;;;;;11.65;10.52;;;;;;;12.13;90.05;100306.66;10412511;28;20638;-59
2024/03/19 01:41:15;;;;;;;11.40;10.35;;;;;;;12.07;90.14;100297.38;10433385;28;20052;-60
2024/03/19 01:46:28;;;;;;;11.30;10.30;;;;;;;12.07;90.56;100305.41;10397266;28;20136;-61
2024/03/19 01:51:29;;;;;;;11.47;10.47;;;;;;;12.00;90.21;100297.06;10420152;28;20131;-62
2024/03/19 01:56:32;;;;;;;11.98;10.13;;;;;;;12.00;90.35;100304.22;10414006;28;20056;-60
2024/03/19 02:01:35;;;;;;;11.30;10.30;;;;;;;11.90;90.38;100296.13;10432249;28;20151;-62
2024/03/19 02:06:36;;;;;;;11.30;10.20;;;;;;;11.85;90.87;100299.19;10422928;28;20059;-62
2024/03/19 02:11:36;;;;;;;10.52;9.55;;;;;;;11.85;91.10;100301.00;10429120;28;20071;-60
2024/03/19 02:16:37;;;;;;;10.88;9.63;;;;;;;11.77;91.29;100282.13;10425529;28;20068;-59
2024/03/19 02:21:38;;;;;;;10.38;9.45;;;;;;;11.79;91.37;100288.19;10426822;28;20071;-61
2024/03/19 02:26:39;;;;;;;11.43;10.32;;;;;;;11.75;91.37;100273.44;10423813;28;20040;-60
2024/03/19 02:31:40;;;;;;;12.82;10.15;;;;;;;11.62;91.63;100265.59;10423898;28;20071;-60
2024/03/19 02:36:41;;;;;;;11.55;10.38;;;;;;;11.66;91.55;100272.38;10414344;28;20144;-60
2024/03/19 02:41:42;;;;;;;11.40;10.30;;;;;;;11.67;91.88;100271.41;10424110;28;20036;-60
2024/03/19 02:46:42;;;;;;;12.45;11.30;;;;;;;11.67;91.98;100276.75;10398968;28;20040;-61
2024/03/19 02:51:44;;;;;;;12.93;11.63;;;;;;;11.62;92.34;100266.47;10425555;28;20040;-61
2024/03/19 02:56:45;;;;;;;11.70;10.38;;;;;;;11.66;91.75;100262.59;10418650;28;20562;-62
2024/03/19 03:01:45;;;;;;;12.25;11.05;;;;;;;11.73;91.78;100289.56;10399762;28;20124;-61
2024/03/19 03:06:46;;;;;;;15.32;11.77;;;;;;;11.68;92.00;100284.63;10397876;28;20064;-62
2024/03/19 03:11:46;;;;;;;11.68;10.68;;;;;;;11.72;92.21;100284.34;10395973;28;20056;-60
2024/03/19 03:16:47;;;;;;;11.65;10.60;;;;;;;11.81;91.61;100297.78;10417113;28;20041;-61
2024/03/19 03:21:47;;;;;;;12.18;10.95;;;;;;;11.79;92.01;100297.03;10421159;28;20101;-61
2024/03/19 03:26:48;;;;;;;12.23;11.15;;;;;;;11.79;92.29;100290.88;10428026;28;20056;-61
2024/03/19 03:31:50;;;;;;;11.93;10.82;;;;;;;11.77;92.27;100282.13;10427381;28;20142;-61
2024/03/19 03:36:51;;;;;;;13.48;12.18;;;;;;;11.84;92.66;100291.31;10430033;28;20127;-60
2024/03/19 03:41:52;;;;;;;13.80;12.55;;;;;;;11.94;92.23;100313.59;10431103;28;20155;-60
2024/03/19 03:46:52;;;;;;;16.75;13.98;;;;;;;11.94;92.22;100312.75;10411953;28;20041;-60
2024/03/19 03:51:53;;;;;;;17.23;15.43;;;;;;;11.92;92.37;100312.84;10426690;28;20106;-61
2024/03/19 03:56:53;;;;;;;16.52;14.88;;;;;;;11.93;92.52;100319.88;10424203;28;20056;-61
2024/03/19 04:01:54;;;;;;;18.52;16.48;;;;;;;11.89;92.42;100309.59;10435133;28;20045;-62
2024/03/19 04:06:55;;;;;;;18.95;16.42;;;;;;;11.93;92.45;100311.88;10439057;28;20143;-62
2024/03/19 04:11:56;;;;;;;20.05;16.95;;;;;;;11.88;92.39;100314.09;10437597;28;20162;-60
2024/03/19 04:16:58;;;;;;;18.23;16.25;;;;;;;11.94;92.67;100321.59;10411805;28;20052;-60
2024/03/19 04:21:58;;;;;;;17.13;15.13;;;;;;;11.97;92.86;100317.81;10445270;28;20230;-61
2024/03/19 04:26:59;;;;;;;19.02;16.17;;;;;;;11.98;92.79;100317.69;10442568;28;20131;-61
2024/03/19 04:31:59;;;;;;;19.95;16.85;;;;;;;11.99;92.92;100316.72;10440038;28;20064;-61
2024/03/19 04:37:00;;;;;;;18.55;16.58;;;;;;;11.94;92.59;100313.59;10437117;28;20056;-60
2024/03/19 04:42:02;;;;;;;16.92;15.23;;;;;;;11.98;92.47;100319.50;10441905;28;20719;-60
2024/03/19 04:47:02;;;;;;;18.33;16.30;;;;;;;11.99;92.29;100321.19;10437601;28;20111;-61
2024/03/19 04:52:03;;;;;;;19.55;17.40;;;;;;;11.95;92.17;100314.44;10426764;28;20107;-59
2024/03/19 04:57:04;;;;;;;16.05;14.30;;;;;;;11.95;92.02;100319.75;10441085;28;20624;-61
2024/03/19 05:02:04;;;;;;;17.00;15.20;;;;;;;11.95;92.43;100320.63;10380919;28;20139;-61
2024/03/19 05:07:05;;;;;;;16.13;14.48;;;;;;;11.95;92.19;100325.97;10422859;28;20141;-62
2024/03/19 05:12:06;;;;;;;17.15;15.40;;;;;;;11.92;91.93;100320.00;10433231;28;20488;-63
2024/03/19 05:17:06;;;;;;;17.15;15.38;;;;;;;11.92;91.92;100314.66;10420660;28;20048;-61
2024/03/19 05:22:07;;;;;;;19.05;17.00;;;;;;;11.90;91.59;100317.44;10430783;28;20111;-61
2024/03/19 05:27:08;;;;;;;19.52;16.42;;;;;;;11.99;91.78;100337.19;10418544;28;20044;-61
2024/03/19 05:32:09;;;;;;;20.00;16.10;;;;;;;11.96;91.94;100348.97;10423260;28;20136;-61
2024/03/19 05:37:11;;;;;;;18.13;16.23;;;;;;;11.96;91.84;100354.31;10406517;28;20195;-63
2024/03/19 05:42:12;;;;;;;19.27;16.92;;;;;;;11.92;91.86;100344.88;10418610;28;20205;-60
2024/03/19 05:47:14;;;;;;;19.30;16.50;;;;;;;11.96;91.79;100356.97;10401364;28;20632;-60
2024/03/19 05:52:16;;;;;;;18.15;16.25;;;;;;;11.92;92.07;100352.88;10411818;28;20213;-60
2024/03/19 05:57:19;;;;;;;20.88;17.17;;;;;;;11.93;91.98;100364.41;10425990;28;20136;-63
2024/03/19 06:02:21;;;;;;;18.70;16.73;;;;;;;11.83;92.07;100354.47;10430394;28;20164;-62
2024/03/19 06:07:21;;;;;;;20.83;17.60;;;;;;;11.98;92.16;100371.03;10430420;28;20052;-61
2024/03/19 06:12:22;;;;;;;17.63;15.65;;;;;;;12.03;92.26;100378.66;10433096;28;20052;-62
2024/03/19 06:17:23;;;;;;;17.77;15.80;;;;;;;12.06;92.08;100366.88;10402987;28;20136;-60
2024/03/19 06:22:24;;;;;;;20.55;16.23;;;;;;;12.12;91.66;100379.72;10398469;28;20098;-62
2024/03/19 06:27:25;;;;;;;18.60;16.58;;;;;;;12.18;91.52;100384.50;10419746;28;20072;-61
2024/03/19 06:32:25;;;;;;;17.88;16.08;;;;;;;12.16;91.21;100375.78;10423819;28;20516;-59
2024/03/19 06:37:26;;;;;;;17.05;15.35;;;;;;;12.14;91.43;100377.75;10424067;28;20049;-61
2024/03/19 06:42:27;;;;;;;16.55;14.85;;;;;;;12.19;91.34;100373.72;10413459;28;20151;-59
2024/03/19 06:47:28;;;;;;;16.33;14.77;;;;;;;12.15;91.40;100376.78;10422205;28;20633;-62
2024/03/19 06:52:30;;;;;;;17.60;15.90;;;;;;;12.16;91.09;100397.13;10426177;28;20222;-62
2024/03/19 06:57:31;;;;;;;18.05;16.17;;;;;;;12.13;91.53;100392.91;10388936;28;20102;-63
2024/03/19 07:02:34;;;;;;;17.40;15.57;;;;;;;12.17;91.48;100405.03;10408426;28;20735;-62
2024/03/19 07:07:35;;;;;;;19.77;15.82;;;;;;;12.22;91.80;100415.31;10399581;28;20144;-61
2024/03/19 07:12:37;;;;;;;23.92;18.33;;;;;;;12.28;91.92;100422.78;10401346;28;20124;-61
2024/03/19 07:17:38;;;;;;;22.27;18.52;;;;;;;12.26;92.46;100427.41;10411217;28;20072;-62
2024/03/19 07:22:42;;;;;;;24.48;19.95;;;;;;;12.33;92.48;100425.91;10402967;28;20070;-60
2024/03/19 07:27:44;;;;;;;29.00;20.35;;;;;;;12.37;92.07;100424.69;10396009;28;20099;-61
2024/03/19 07:32:46;;;;;;;27.38;19.35;;;;;;;12.39;92.10;100432.56;10401595;28;20581;-60
2024/03/19 07:37:49;;;;;;;29.25;19.65;;;;;;;12.37;92.43;100438.03;10423927;28;20847;-60
2024/03/19 07:42:50;;;;;;;28.50;19.80;;;;;;;12.37;92.41;100438.03;10426435;28;20120;-61
2024/03/19 07:47:52;;;;;;;27.77;19.85;;;;;;;12.38;92.38;100438.84;10400138;28;20044;-60
2024/03/19 07:52:53;;;;;;;30.73;22.85;;;;;;;12.30;92.29;100444.84;10413495;28;20083;-62
2024/03/19 07:57:53;;;;;;;33.38;20.23;;;;;;;12.38;92.66;100450.41;10424427;28;20108;-61
2024/03/19 08:02:54;;;;;;;27.70;18.38;;;;;;;12.38;92.78;100461.06;10405339;28;20094;-63
2024/03/19 08:07:55;;;;;;;30.10;19.58;;;;;;;12.42;92.52;100471.50;10408101;28;20064;-59
2024/03/19 08:12:55;;;;;;;30.42;20.85;;;;;;;12.43;92.53;100462.50;10419919;28;20051;-61
2024/03/19 08:17:56;;;;;;;34.40;22.35;;;;;;;12.47;92.63;100470.09;10416746;28;20106;-62
2024/03/19 08:22:58;;;;;;;29.95;19.00;;;;;;;12.32;92.57;100445.56;10372969;28;20048;-61
2024/03/19 08:27:58;;;;;;;31.77;20.17;;;;;;;12.42;92.64;100479.50;10421373;28;20195;-60
2024/03/19 08:32:59;;;;;;;34.65;21.83;;;;;;;12.44;92.92;100488.22;10407136;28;20072;-61
2024/03/19 08:38:02;;;;;;;32.47;21.70;;;;;;;12.22;94.42;100482.03;10415176;28;20041;-60
2024/03/19 08:43:04;;;;;;;34.83;22.23;;;;;;;12.46;94.08;100495.13;10405262;28;20148;-61
2024/03/19 08:48:06;;;;;;;33.30;22.02;;;;;;;12.53;93.43;100501.63;10398522;28;20115;-60
2024/03/19 08:53:07;;;;;;;34.17;21.98;;;;;;;12.47;93.55;100496.81;10419933;28;20139;-60
2024/03/19 08:58:08;;;;;;;34.55;22.73;;;;;;;12.62;94.14;100505.34;10416075;28;20553;-59
2024/03/19 09:03:09;;;;;;;32.53;21.88;;;;;;;12.70;93.17;100502.88;10417110;28;20657;-61
2024/03/19 09:08:09;;;;;;;31.17;23.20;;;;;;;12.72;92.47;100511.59;10422574;28;20118;-59
2024/03/19 09:13:11;;;;;;;34.72;21.58;;;;;;;12.76;92.24;100500.63;10425053;28;20048;-60
2024/03/19 09:18:12;;;;;;;33.58;21.17;;;;;;;12.70;92.19;100492.19;10421670;28;20135;-61
2024/03/19 09:23:14;;;;;;;36.42;22.40;;;;;;;12.86;91.84;100506.88;10408571;28;20076;-61
2024/03/19 09:28:15;;;;;;;33.75;22.52;;;;;;;12.94;91.65;100520.44;10406509;28;20152;-59
2024/03/19 09:33:17;;;;;;;33.05;21.25;;;;;;;13.02;90.98;100520.63;10427414;28;20059;-60
2024/03/19 09:38:19;;;;;;;29.10;19.63;;;;;;;13.09;90.68;100516.44;10404419;28;20203;-60
2024/03/19 09:43:23;;;;;;;31.85;20.85;;;;;;;13.15;90.20;100516.88;10383804;28;20132;-60
2024/03/19 09:48:25;;;;;;;30.05;20.42;;;;;;;13.20;90.11;100525.34;10424119;28;20156;-60
2024/03/19 09:53:28;;;;;;;29.00;18.90;;;;;;;13.25;89.78;100517.75;10405099;28;20068;-63
2024/03/19 09:58:30;;;;;;;28.42;19.90;;;;;;;13.32;89.31;100524.28;10423433;28;20184;-60
2024/03/19 10:03:30;;;;;;;25.95;16.98;;;;;;;13.37;88.38;100516.72;10414411;28;20135;-60
2024/03/19 10:08:30;;;;;;;23.75;16.88;;;;;;;13.43;86.89;100528.69;10375941;28;20128;-60
2024/03/19 10:13:31;;;;;;;25.75;18.05;;;;;;;13.46;87.20;100520.41;10401910;28;20144;-62
2024/03/19 10:18:33;;;;;;;29.38;19.50;;;;;;;13.44;87.98;100528.56;10385066;28;20104;-62
2024/03/19 10:23:35;;;;;;;26.05;17.98;;;;;;;13.50;86.54;100526.34;10424140;28;20124;-61
2024/03/19 10:28:38;;;;;;;25.23;19.02;;;;;;;13.23;87.07;100512.56;10419497;28;20149;-61
2024/03/19 10:33:43;;;;;;;21.63;16.27;;;;;;;13.03;87.07;100519.66;10407063;28;20135;-61
2024/03/19 10:38:44;;;;;;;25.75;18.25;;;;;;;13.39;86.98;100520.13;10417427;28;20473;-60
2024/03/19 10:43:45;;;;;;;24.05;17.52;;;;;;;13.68;85.50;100527.38;10417441;28;20083;-61
2024/03/19 10:48:45;;;;;;;27.83;18.58;;;;;;;13.82;84.08;100520.78;10421439;28;20147;-61
2024/03/19 10:53:47;;;;;;;25.48;17.92;;;;;;;13.98;83.62;100520.25;10423987;28;20763;-61
2024/03/19 10:58:48;;;;;;;22.10;17.85;;;;;;;13.92;82.08;100520.81;10404562;28;20578;-60
2024/03/19 11:03:54;;;;;;;21.60;15.52;;;;;;;13.94;81.21;100517.00;10406699;28;20164;-61
2024/03/19 11:08:56;;;;;;;23.40;16.77;;;;;;;14.29;80.29;100522.78;10401328;28;20121;-61
2024/03/19 11:14:00;;;;;;;22.08;16.77;;;;;;;14.49;77.89;100524.47;10392168;28;20156;-60
2024/03/19 11:19:01;;;;;;;21.70;16.38;;;;;;;14.63;78.14;100517.03;10395581;28;20054;-59
2024/03/19 11:24:02;;;;;;;20.60;15.93;;;;;;;14.85;76.86;100515.84;10393301;28;20095;-60
2024/03/19 11:29:02;;;;;;;20.95;16.70;;;;;;;15.00;76.13;100518.91;10428238;28;23667;-61
2024/03/19 11:34:07;;;;;;;23.13;15.80;;;;;;;15.14;74.25;100506.88;10407372;28;20048;-61
2024/03/19 11:39:09;;;;;;;22.05;16.33;;;;;;;15.41;73.16;100514.09;10425703;28;20206;-61
2024/03/19 11:44:19;;;;;;;21.90;16.80;;;;;;;15.52;71.95;100505.84;10395384;28;20148;-61
2024/03/19 11:49:24;;;;;;;18.10;15.30;;;;;;;15.66;70.35;100506.34;10425945;28;20124;-61
2024/03/19 11:54:26;;;;;;;19.55;15.85;;;;;;;16.43;66.81;100501.41;10422540;28;20127;-63
2024/03/19 11:59:28;;;;;;;17.55;14.27;;;;;;;17.34;62.64;100493.91;10379012;28;20144;-61
2024/03/19 12:04:31;;;;;;;20.83;14.95;;;;;;;17.71;62.47;100488.16;10407869;28;20137;-60
2024/03/19 12:09:32;;;;;;;19.27;14.77;;;;;;;18.61;58.38;100483.88;10420326;28;20159;-61
2024/03/19 12:14:33;;;;;;;17.90;14.75;;;;;;;19.35;55.94;100464.78;10421760;28;20522;-62
2024/03/19 12:19:36;;;;;;;17.88;13.82;;;;;;;20.11;52.45;100454.22;10398520;28;20438;-60
2024/03/19 12:24:36;;;;;;;15.85;13.80;;;;;;;21.39;50.04;100446.13;10432689;28;20507;-61
2024/03/19 12:29:37;;;;;;;20.27;14.70;;;;;;;22.38;46.26;100448.22;10425327;28;20061;-61
2024/03/19 12:34:37;;;;;;;16.45;13.32;;;;;;;22.98;44.13;100439.66;10428844;28;20051;-63
2024/03/19 12:39:38;;;;;;;18.98;16.05;;;;;;;23.20;44.00;100405.97;10409067;28;20048;-61
2024/03/19 12:44:39;;;;;;;20.10;15.52;;;;;;;24.20;42.01;100443.41;10392648;28;20145;-62
2024/03/19 12:49:42;;;;;;;20.67;15.25;;;;;;;24.84;39.71;100438.34;10432065;28;20106;-61
2024/03/19 12:54:43;;;;;;;20.20;16.77;;;;;;;24.69;41.11;100436.69;10424134;28;20151;-61
2024/03/19 12:59:44;;;;;;;19.58;14.98;;;;;;;25.20;38.47;100426.91;10430921;28;20065;-63
2024/03/19 13:04:45;;;;;;;16.02;14.23;;;;;;;25.46;38.14;100427.03;10417483;28;20218;-62
2024/03/19 13:09:46;;;;;;;18.08;13.80;;;;;;;25.74;37.32;100421.22;10379468;28;20044;-61
2024/03/19 13:14:46;;;;;;;16.30;14.05;;;;;;;27.26;34.61;100427.38;10406786;28;20064;-62
2024/03/19 13:19:49;;;;;;;16.33;14.60;;;;;;;28.51;31.77;100425.72;10417060;28;20136;-63
2024/03/19 13:24:49;;;;;;;14.00;12.50;;;;;;;27.85;33.49;100427.66;10425124;28;20129;-61
2024/03/19 13:29:51;;;;;;;13.85;12.27;;;;;;;27.12;33.84;100429.44;10426863;28;21128;-60
2024/03/19 13:34:53;;;;;;;15.57;13.02;;;;;;;26.68;34.79;100410.41;10392912;28;20118;-60
2024/03/19 13:39:54;;;;;;;15.25;12.27;;;;;;;26.18;35.94;100416.75;10423547;28;20159;-62
2024/03/19 13:44:54;;;;;;;15.88;12.82;;;;;;;25.26;36.24;100408.88;10389545;28;20707;-61
2024/03/19 13:49:54;;;;;;;14.30;12.67;;;;;;;25.01;36.72;100404.16;10415573;28;20628;-61
2024/03/19 13:54:57;;;;;;;12.45;11.23;;;;;;;24.14;38.37;100403.44;10424649;28;20283;-61
2024/03/19 13:59:58;;;;;;;14.40;11.70;;;;;;;23.68;39.41;100396.91;10403074;28;20646;-61
2024/03/19 14:04:59;;;;;;;12.88;11.18;;;;;;;22.76;39.91;100399.06;10434276;28;20120;-62
2024/03/19 14:10:02;;;;;;;10.50;9.40;;;;;;;22.36;39.53;100393.38;10420304;28;20078;-60
2024/03/19 14:15:08;;;;;;;12.60;9.82;;;;;;;22.20;40.86;100395.31;10406393;28;20142;-62
2024/03/19 14:20:10;;;;;;;13.25;9.95;;;;;;;22.15;40.23;100403.19;10430795;28;20143;-61
2024/03/19 14:25:11;;;;;;;8.90;7.55;;;;;;;22.03;39.68;100392.03;10427871;28;20072;-61
2024/03/19 14:30:15;;;;;;;8.43;6.75;;;;;;;21.73;39.63;100393.22;10425575;28;20527;-60
2024/03/19 14:35:16;;;;;;;7.90;5.80;;;;;;;21.54;39.54;100379.25;10397626;28;20132;-60
2024/03/19 14:40:17;;;;;;;6.10;5.03;;;;;;;21.44;39.55;100378.69;10403878;28;20052;-60
2024/03/19 14:45:17;;;;;;;9.05;7.70;;;;;;;21.30;41.03;100372.31;10406898;28;20056;-61
2024/03/19 14:50:18;;;;;;;16.38;10.98;;;;;;;20.94;41.36;100373.13;10400811;28;20110;-61
2024/03/19 14:55:20;;;;;;;13.30;9.45;;;;;;;20.71;43.34;100368.69;10406528;28;20064;-63
2024/03/19 15:00:21;;;;;;;10.60;8.35;;;;;;;20.55;42.75;100361.59;10418132;28;20123;-63
2024/03/19 15:05:22;;;;;;;9.75;6.70;;;;;;;20.45;42.49;100363.72;10390180;28;20126;-61
2024/03/19 15:10:24;;;;;;;8.63;5.22;;;;;;;20.10;40.52;100366.94;10406670;28;22162;-61
2024/03/19 15:15:25;;;;;;;8.60;5.05;;;;;;;19.82;42.31;100363.13;10380488;28;20044;-62
2024/03/19 15:20:25;;;;;;;7.53;5.07;;;;;;;19.59;42.92;100364.78;10413433;28;20049;-61
2024/03/19 15:25:26;;;;;;;6.25;3.40;;;;;;;19.56;43.37;100362.44;10403483;28;20128;-61
2024/03/19 15:30:27;;;;;;;6.43;2.72;;;;;;;19.47;42.52;100357.25;10420773;28;20547;-60
2024/03/19 15:35:29;;;;;;;3.47;1.80;;;;;;;19.27;41.45;100346.94;10400007;28;20626;-61
2024/03/19 15:40:36;;;;;;;2.88;1.52;;;;;;;19.02;41.80;100344.38;10422610;28;20186;-61
2024/03/19 15:45:37;;;;;;;3.88;1.98;;;;;;;19.01;41.83;100342.69;10397496;28;20123;-61
2024/03/19 15:50:38;;;;;;;3.58;1.80;;;;;;;18.98;42.46;100344.91;10422800;28;20063;-61
2024/03/19 15:55:38;;;;;;;7.15;4.18;;;;;;;18.89;43.03;100360.31;10410917;28;20048;-62
2024/03/19 16:00:42;;;;;;;7.63;4.93;;;;;;;18.68;44.49;100361.69;10398489;28;20219;-61
2024/03/19 16:05:43;;;;;;;6.22;4.30;;;;;;;18.67;44.80;100381.56;10431651;28;20076;-61
2024/03/19 16:10:45;;;;;;;7.73;5.03;;;;;;;18.58;45.81;100381.78;10422317;28;20434;-61
2024/03/19 16:15:46;;;;;;;7.88;5.07;;;;;;;18.45;45.55;100387.69;10396882;28;20387;-60
2024/03/19 16:20:46;;;;;;;6.88;4.60;;;;;;;18.31;46.20;100387.38;10410004;28;20146;-60
2024/03/19 16:25:47;;;;;;;6.60;4.63;;;;;;;18.15;46.38;100371.22;10426173;28;20056;-61
2024/03/19 16:30:48;;;;;;;8.40;5.25;;;;;;;18.14;47.38;100383.03;10399113;28;20414;-61
2024/03/19 16:35:48;;;;;;;6.03;4.20;;;;;;;18.08;47.65;100373.78;10377956;28;20189;-61
2024/03/19 16:40:49;;;;;;;5.20;4.70;;;;;;;18.05;48.01;100381.38;10409534;28;20118;-60
2024/03/19 16:45:49;;;;;;;6.30;4.95;;;;;;;17.96;48.17;100378.66;10409506;28;20048;-62
2024/03/19 16:50:52;;;;;;;7.63;4.38;;;;;;;17.88;48.54;100375.94;10400398;28;20057;-61
2024/03/19 16:55:52;;;;;;;6.15;4.38;;;;;;;17.70;48.79;100369.88;10410720;28;20124;-62
2024/03/19 17:00:52;;;;;;;5.88;4.18;;;;;;;17.61;49.16;100382.47;10402331;28;20049;-62
2024/03/19 17:05:53;;;;;;;5.90;4.38;;;;;;;17.45;48.71;100386.00;10413435;28;21152;-65
2024/03/19 17:10:53;;;;;;;6.57;4.63;;;;;;;17.31;49.38;100391.00;10411039;28;20537;-63
2024/03/19 17:15:56;;;;;;;5.63;4.20;;;;;;;17.24;50.38;100389.97;10423336;28;20578;-64
2024/03/19 17:20:56;;;;;;;5.07;4.15;;;;;;;17.17;50.74;100402.38;10406158;28;20175;-64
2024/03/19 17:25:57;;;;;;;5.47;4.47;;;;;;;17.02;50.86;100418.28;10389592;28;20045;-63
2024/03/19 17:30:58;;;;;;;7.18;4.32;;;;;;;16.89;50.99;100412.50;10418352;28;21207;-64
2024/03/19 17:35:59;;;;;;;6.20;4.32;;;;;;;16.81;51.34;100420.53;10415904;28;20146;-63
2024/03/19 17:41:00;;;;;;;5.13;3.97;;;;;;;16.70;51.43;100418.97;10423487;28;20068;-62
2024/03/19 17:46:01;;;;;;;4.15;3.75;;;;;;;16.58;51.92;100421.91;10402981;28;20135;-62
2024/03/19 17:51:02;;;;;;;5.68;4.10;;;;;;;16.52;52.06;100427.91;10395466;28;20048;-62
2024/03/19 17:56:05;;;;;;;5.93;4.28;;;;;;;16.42;52.62;100432.53;10410169;28;20186;-64
2024/03/19 18:01:07;;;;;;;6.83;3.67;;;;;;;16.25;51.54;100424.38;10422605;28;20223;-64
2024/03/19 18:06:08;;;;;;;4.22;3.00;;;;;;;16.25;51.83;100436.97;10427294;28;20127;-65
2024/03/19 18:11:08;;;;;;;5.90;3.40;;;;;;;16.08;52.28;100441.38;10417859;28;20041;-63
2024/03/19 18:16:09;;;;;;;5.90;3.33;;;;;;;15.99;52.21;100442.25;10427324;28;20153;-64
2024/03/19 18:21:09;;;;;;;8.27;3.47;;;;;;;16.01;51.61;100461.78;10424137;28;20053;-63
2024/03/19 18:26:11;;;;;;;5.72;3.83;;;;;;;15.94;51.86;100466.06;10423681;28;20056;-62
2024/03/19 18:31:12;;;;;;;3.70;2.92;;;;;;;15.86;51.56;100464.97;10414959;28;20170;-63
2024/03/19 18:36:12;;;;;;;4.22;3.00;;;;;;;15.79;52.06;100468.44;10397387;28;20102;-63
2024/03/19 18:41:13;;;;;;;4.18;3.60;;;;;;;15.72;51.85;100469.00;10397801;28;20063;-62
2024/03/19 18:46:15;;;;;;;6.50;5.00;;;;;;;15.66;52.80;100468.78;10413728;28;20537;-66
2024/03/19 18:51:15;;;;;;;7.57;5.88;;;;;;;15.56;53.88;100463.47;10374238;28;20068;-65
2024/03/19 18:56:16;;;;;;;9.55;6.85;;;;;;;15.45;54.70;100456.47;10402913;28;20367;-65
2024/03/19 19:01:17;;;;;;;10.27;7.13;;;;;;;15.45;55.27;100471.75;10430128;28;20044;-62
2024/03/19 19:06:17;;;;;;;11.18;7.55;;;;;;;15.38;55.78;100472.31;10402120;28;20144;-62
2024/03/19 19:11:19;;;;;;;8.82;7.78;;;;;;;15.31;56.13;100475.75;10421364;28;20491;-62
2024/03/19 19:16:21;;;;;;;10.25;8.35;;;;;;;15.20;56.62;100484.81;10421376;28;20132;-63
2024/03/19 19:21:22;;;;;;;10.30;8.65;;;;;;;15.12;56.96;100493.63;10401997;28;20805;-62
2024/03/19 19:26:23;;;;;;;11.93;8.75;;;;;;;15.06;57.01;100494.22;10426554;28;20147;-62
2024/03/19 19:31:26;;;;;;;10.60;8.13;;;;;;;14.96;57.56;100494.22;10429972;28;20190;-62
2024/03/19 19:36:26;;;;;;;12.23;9.20;;;;;;;14.93;57.76;100493.69;10425039;28;20163;-63
2024/03/19 19:41:27;;;;;;;9.95;7.70;;;;;;;14.82;58.25;100492.88;10422395;28;20114;-63
2024/03/19 19:46:28;;;;;;;11.82;8.77;;;;;;;14.81;58.79;100496.53;10414941;28;20583;-62
2024/03/19 19:51:28;;;;;;;11.90;9.45;;;;;;;14.72;58.89;100488.53;10411944;28;20463;-62
2024/03/19 19:56:29;;;;;;;11.82;9.18;;;;;;;14.70;59.50;100494.03;10409865;28;20084;-61
2024/03/19 20:01:30;;;;;;;13.82;10.32;;;;;;;14.49;60.16;100492.34;10407344;28;20056;-63
2024/03/19 20:06:31;;;;;;;12.23;9.85;;;;;;;14.38;60.63;100486.28;10426316;28;20617;-61
2024/03/19 20:11:32;;;;;;;13.57;9.10;;;;;;;14.49;60.65;100497.69;10400969;28;20057;-62
2024/03/19 20:16:32;;;;;;;11.45;9.45;;;;;;;14.41;61.32;100497.56;10423391;28;20136;-62
2024/03/19 20:21:33;;;;;;;11.57;9.48;;;;;;;14.35;61.27;100494.59;10426524;28;20564;-63
2024/03/19 20:26:36;;;;;;;12.45;9.75;;;;;;;14.32;61.49;100495.72;10427949;28;20068;-62
2024/03/19 20:31:36;;;;;;;11.43;9.50;;;;;;;14.22;62.04;100492.22;10374643;28;20144;-60
2024/03/19 20:36:37;;;;;;;13.63;10.20;;;;;;;14.19;62.80;100492.53;10379294;28;20410;-64
2024/03/19 20:41:38;;;;;;;15.07;11.10;;;;;;;14.14;62.66;100496.47;10427264;28;20059;-62
2024/03/19 20:46:40;;;;;;;15.98;12.18;;;;;;;14.07;63.44;100489.13;10415228;28;20131;-61
2024/03/19 20:51:41;;;;;;;14.75;11.63;;;;;;;14.02;63.61;100496.72;10403235;28;20146;-62
2024/03/19 20:56:42;;;;;;;15.75;12.63;;;;;;;13.98;63.76;100506.88;10421850;28;20545;-60
2024/03/19 21:01:44;;;;;;;16.10;12.18;;;;;;;13.88;64.13;100489.97;10413439;28;20214;-62
2024/03/19 21:06:44;;;;;;;17.35;13.15;;;;;;;13.94;64.01;100497.41;10438031;28;20199;-61
2024/03/19 21:11:44;;;;;;;17.27;13.45;;;;;;;13.68;64.30;100459.66;10419330;28;20051;-62
2024/03/19 21:16:45;;;;;;;18.42;12.95;;;;;;;13.84;64.54;100496.56;10426003;28;20055;-61
2024/03/19 21:21:45;;;;;;;19.52;16.80;;;;;;;13.76;64.59;100500.78;10402693;28;20056;-61
2024/03/19 21:26:46;;;;;;;18.40;16.48;;;;;;;13.73;64.70;100500.22;10374983;28;20148;-61
2024/03/19 21:31:46;;;;;;;16.48;14.77;;;;;;;13.70;65.44;100495.97;10417092;28;20052;-62
2024/03/19 21:36:47;;;;;;;14.88;13.27;;;;;;;13.64;64.97;100499.19;10428362;28;20057;-61
2024/03/19 21:41:48;;;;;;;18.70;13.40;;;;;;;13.44;65.26;100487.63;10428751;28;20578;-62
2024/03/19 21:46:48;;;;;;;13.02;11.55;;;;;;;13.55;65.41;100495.50;10417259;28;20202;-62
2024/03/19 21:51:49;;;;;;;19.85;17.58;;;;;;;13.54;65.70;100495.66;10427522;28;20055;-62
2024/03/19 21:56:49;;;;;;;16.40;14.65;;;;;;;13.52;66.25;100505.66;10423920;28;20056;-63
2024/03/19 22:01:54;;;;;;;16.25;13.68;;;;;;;13.41;66.14;100483.38;10418515;28;20062;-63
2024/03/19 22:06:54;;;;;;;;;;;;;;;13.43;65.97;100492.09;10374361;28;20167;-60
2024/03/19 22:11:55;;;;;;;16.30;14.67;;;;;;;13.40;66.11;100481.69;10398848;28;19920;-62
2024/03/19 22:16:57;;;;;;;18.48;16.55;;;;;;;13.35;66.22;100478.59;10432824;28;20283;-60
2024/03/19 22:21:58;;;;;;;22.55;17.17;;;;;;;13.26;66.67;100476.69;10419010;28;20857;-61
2024/03/19 22:26:58;;;;;;;16.15;14.38;;;;;;;13.25;66.82;100485.69;10396003;28;20110;-60
2024/03/19 22:32:00;;;;;;;18.60;14.65;;;;;;;13.19;66.64;100486.22;10402592;28;20088;-61
2024/03/19 22:37:01;;;;;;;16.23;14.52;;;;;;;13.11;66.54;100486.91;10422312;28;20507;-61
2024/03/19 22:42:02;;;;;;;13.27;11.50;;;;;;;13.12;66.30;100485.06;10422491;28;20135;-63